createdAt,value
2017-05-13T00:01:02.918Z,15.12
2017-05-13T00:03:30.103Z,15.14
2017-05-13T00:05:57.391Z,14.86
2017-05-13T00:08:24.604Z,14.96
2017-05-13T00:10:51.793Z,17.46
2017-05-13T00:13:19.016Z,15.84
2017-05-13T00:15:46.876Z,16.58
2017-05-13T00:18:18.245Z,16.74
2017-05-13T00:20:45.440Z,19.04
2017-05-13T00:23:13.361Z,21.36
2017-05-13T00:25:40.594Z,19.00
2017-05-13T00:28:07.794Z,19.48
2017-05-13T00:30:34.991Z,20.00
2017-05-13T00:33:03.177Z,18.60
2017-05-13T00:35:30.379Z,18.04
2017-05-13T00:37:57.581Z,19.46
2017-05-13T00:40:24.805Z,19.78
2017-05-13T00:42:52.466Z,18.68
2017-05-13T00:45:19.692Z,20.96
2017-05-13T00:47:46.888Z,21.12
2017-05-13T00:50:14.751Z,19.08
2017-05-13T00:52:42.546Z,21.62
2017-05-13T00:55:09.754Z,19.64
2017-05-13T00:57:36.959Z,19.62
2017-05-13T01:00:04.158Z,17.42
2017-05-13T01:02:31.390Z,17.84
2017-05-13T01:04:58.581Z,19.06
2017-05-13T01:07:26.989Z,20.68
2017-05-13T01:09:54.189Z,19.46
2017-05-13T01:12:21.393Z,17.88
2017-05-13T01:14:48.632Z,19.90
2017-05-13T01:17:16.603Z,20.82
2017-05-13T01:19:44.766Z,18.82
2017-05-13T01:22:11.969Z,20.10
2017-05-13T01:24:39.160Z,19.60
2017-05-13T01:27:07.303Z,17.82
2017-05-13T01:29:34.508Z,21.06
2017-05-13T01:32:01.695Z,18.24
2017-05-13T01:34:28.892Z,19.48
2017-05-13T01:36:56.077Z,18.90
2017-05-13T01:39:23.309Z,19.98
2017-05-13T01:41:50.513Z,21.48
2017-05-13T01:44:18.642Z,21.64
2017-05-13T01:46:45.885Z,20.62
2017-05-13T01:49:13.074Z,19.86
2017-05-13T01:51:40.310Z,20.66
2017-05-13T01:54:07.527Z,21.18
2017-05-13T01:56:36.714Z,23.32
2017-05-13T01:59:03.911Z,20.02
2017-05-13T02:01:31.116Z,21.22
2017-05-13T02:03:58.370Z,21.12
2017-05-13T02:06:25.573Z,20.78
2017-05-13T02:08:53.476Z,20.00
2017-05-13T02:11:27.242Z,21.64
2017-05-13T02:13:54.457Z,21.00
2017-05-13T02:16:21.666Z,20.60
2017-05-13T02:18:49.862Z,19.42
2017-05-13T02:21:17.080Z,18.96
2017-05-13T02:23:44.303Z,19.10
2017-05-13T02:26:11.522Z,20.02
2017-05-13T02:28:38.842Z,19.50
2017-05-13T02:31:06.029Z,18.92
2017-05-13T02:33:33.294Z,19.08
2017-05-13T02:36:00.499Z,18.38
2017-05-13T02:38:27.706Z,19.24
2017-05-13T02:40:54.924Z,18.60
2017-05-13T02:43:22.134Z,19.64
2017-05-13T02:45:49.318Z,18.12
2017-05-13T02:48:16.545Z,19.00
2017-05-13T02:50:43.840Z,19.06
2017-05-13T02:53:11.091Z,19.92
2017-05-13T02:55:38.263Z,19.60
2017-05-13T02:58:05.446Z,18.28
2017-05-13T03:00:32.650Z,18.30
2017-05-13T03:02:59.857Z,18.20
2017-05-13T03:05:27.093Z,19.62
2017-05-13T03:07:54.280Z,18.48
2017-05-13T03:10:21.495Z,17.84
2017-05-13T03:12:57.163Z,18.08
2017-05-13T03:15:24.360Z,16.88
2017-05-13T03:17:51.578Z,21.65
2017-05-13T03:20:19.762Z,18.76
2017-05-13T03:22:47.013Z,17.54
2017-05-13T03:25:14.219Z,18.76
2017-05-13T03:27:41.410Z,18.56
2017-05-13T03:30:08.620Z,18.16
2017-05-13T03:32:35.810Z,18.36
2017-05-13T03:35:03.038Z,17.70
2017-05-13T03:37:30.257Z,17.44
2017-05-13T03:39:57.440Z,17.96
2017-05-13T03:42:24.663Z,17.94
2017-05-13T03:44:52.443Z,17.26
2017-05-13T03:47:19.679Z,17.14
2017-05-13T03:49:46.932Z,18.18
2017-05-13T03:52:14.783Z,18.16
2017-05-13T03:54:42.058Z,19.66
2017-05-13T03:57:09.264Z,19.48
2017-05-13T03:59:36.486Z,18.72
2017-05-13T04:02:03.696Z,19.34
2017-05-13T04:04:30.908Z,19.44
2017-05-13T04:06:58.126Z,17.28
2017-05-13T04:09:25.309Z,18.20
2017-05-13T04:11:52.928Z,18.04
2017-05-13T04:14:38.402Z,17.18
2017-05-13T04:17:05.634Z,16.48
2017-05-13T04:19:32.833Z,17.58
2017-05-13T04:22:00.022Z,17.38
2017-05-13T04:24:27.298Z,17.38
2017-05-13T04:26:54.499Z,18.46
2017-05-13T04:29:21.711Z,17.36
2017-05-13T04:31:48.899Z,18.40
2017-05-13T04:34:16.130Z,18.36
2017-05-13T04:36:43.364Z,19.22
2017-05-13T04:39:10.536Z,18.28
2017-05-13T04:41:37.786Z,17.40
2017-05-13T04:44:05.528Z,16.70
2017-05-13T04:46:33.193Z,16.12
2017-05-13T04:49:00.467Z,16.74
2017-05-13T04:51:28.268Z,16.04
2017-05-13T04:53:55.461Z,13.78
2017-05-13T04:56:22.667Z,14.68
2017-05-13T04:58:49.870Z,16.62
2017-05-13T05:01:17.068Z,16.00
2017-05-13T05:03:44.307Z,16.26
2017-05-13T05:06:11.486Z,15.20
2017-05-13T05:08:39.543Z,15.86
2017-05-13T05:11:06.730Z,15.44
2017-05-13T05:13:33.920Z,15.70
2017-05-13T05:16:01.146Z,15.50
2017-05-13T05:18:30.543Z,15.88
2017-05-13T05:20:57.818Z,15.32
2017-05-13T05:23:40.018Z,15.38
2017-05-13T05:26:07.284Z,18.50
2017-05-13T05:28:36.548Z,18.20
2017-05-13T05:31:03.779Z,15.78
2017-05-13T05:33:30.979Z,15.56
2017-05-13T05:35:58.167Z,14.82
2017-05-13T05:38:25.610Z,14.66
2017-05-13T05:40:54.033Z,14.78
2017-05-13T05:43:21.327Z,14.20
2017-05-13T05:45:48.495Z,13.32
2017-05-13T05:48:15.722Z,13.52
2017-05-13T05:50:42.992Z,14.10
2017-05-13T05:53:10.168Z,13.66
2017-05-13T05:55:37.376Z,13.08
2017-05-13T05:58:05.573Z,14.56
2017-05-13T06:00:32.931Z,13.06
2017-05-13T06:03:00.114Z,12.50
2017-05-13T06:05:34.772Z,13.44
2017-05-13T06:08:01.993Z,13.38
2017-05-13T06:10:30.136Z,13.12
2017-05-13T06:12:57.345Z,13.92
2017-05-13T06:15:30.025Z,11.84
2017-05-13T06:17:58.242Z,12.86
2017-05-13T06:20:25.476Z,13.86
2017-05-13T06:22:53.581Z,12.98
2017-05-13T06:31:13.580Z,12.64
2017-05-13T06:33:41.758Z,14.40
2017-05-13T06:36:08.947Z,13.68
2017-05-13T06:38:36.602Z,14.22
2017-05-13T06:41:08.560Z,12.80
2017-05-13T06:43:35.783Z,13.80
2017-05-13T06:46:06.876Z,13.74
2017-05-13T06:48:34.105Z,13.80
2017-05-13T06:51:01.336Z,12.94
2017-05-13T06:53:28.514Z,13.98
2017-05-13T06:55:55.748Z,14.88
2017-05-13T06:58:24.984Z,13.90
2017-05-13T07:00:52.315Z,13.36
2017-05-13T07:03:25.775Z,14.04
2017-05-13T07:05:53.777Z,13.64
2017-05-13T07:08:21.023Z,13.78
2017-05-13T07:10:48.227Z,13.84
2017-05-13T07:13:17.688Z,13.94
2017-05-13T07:15:52.159Z,14.04
2017-05-13T07:18:20.358Z,14.80
2017-05-13T07:20:47.629Z,14.90
2017-05-13T07:23:15.231Z,14.92
2017-05-13T07:25:43.254Z,15.96
2017-05-13T07:28:10.530Z,14.22
2017-05-13T07:30:37.786Z,15.52
2017-05-13T07:33:05.123Z,15.06
2017-05-13T07:35:32.308Z,14.76
2017-05-13T07:37:59.509Z,15.60
2017-05-13T07:40:26.776Z,15.36
2017-05-13T07:42:54.037Z,17.86
2017-05-13T07:45:21.286Z,17.08
2017-05-13T07:47:49.836Z,14.86
2017-05-13T07:50:17.095Z,15.06
2017-05-13T07:52:46.360Z,15.26
2017-05-13T07:55:13.638Z,15.10
2017-05-13T07:57:40.870Z,14.94
2017-05-13T08:00:08.141Z,16.20
2017-05-13T08:02:35.341Z,15.44
2017-05-13T08:05:03.863Z,15.02
2017-05-13T08:10:18.565Z,15.76
2017-05-13T08:12:45.792Z,14.72
2017-05-13T08:15:14.126Z,14.68
2017-05-13T08:17:41.495Z,15.46
2017-05-13T08:20:08.690Z,15.30
2017-05-13T08:22:35.931Z,15.22
2017-05-13T08:25:04.191Z,15.48
2017-05-13T08:27:31.372Z,14.60
2017-05-13T08:29:58.627Z,14.32
2017-05-13T08:32:26.676Z,14.48
2017-05-13T08:34:54.534Z,15.34
2017-05-13T08:37:21.720Z,14.66
2017-05-13T08:39:48.942Z,15.48
2017-05-13T08:42:16.224Z,14.66
2017-05-13T08:44:43.509Z,16.00
2017-05-13T08:47:13.066Z,15.44
2017-05-13T08:49:41.491Z,16.14
2017-05-13T08:52:09.655Z,15.74
2017-05-13T08:54:51.960Z,14.66
2017-05-13T08:57:22.034Z,15.40
2017-05-13T08:59:50.135Z,14.76
2017-05-13T09:02:17.397Z,15.46
2017-05-13T09:07:29.885Z,14.48
2017-05-13T09:09:57.379Z,14.72
2017-05-13T09:12:32.021Z,14.62
2017-05-13T09:15:15.696Z,15.40
2017-05-13T09:17:44.418Z,15.50
2017-05-13T09:20:13.005Z,15.94
2017-05-13T09:22:40.992Z,17.34
2017-05-13T09:25:13.360Z,17.48
2017-05-13T09:27:46.907Z,15.90
2017-05-13T09:30:17.027Z,16.60
2017-05-13T09:32:44.342Z,17.04
2017-05-13T09:35:14.419Z,17.60
2017-05-13T09:37:41.766Z,16.62
2017-05-13T09:40:08.994Z,16.34
2017-05-13T09:45:12.645Z,15.82
2017-05-13T09:47:40.502Z,15.08
2017-05-13T09:50:09.610Z,14.88
2017-05-13T09:52:51.187Z,16.16
2017-05-13T09:55:21.055Z,15.36
2017-05-13T09:57:51.348Z,15.82
2017-05-13T10:00:24.306Z,14.72
2017-05-13T10:02:52.546Z,14.08
2017-05-13T10:05:21.752Z,15.44
2017-05-13T10:07:50.136Z,14.80
2017-05-13T10:10:18.251Z,15.26
2017-05-13T10:12:46.309Z,15.78
2017-05-13T10:15:14.329Z,14.08
2017-05-13T10:17:47.174Z,15.10
2017-05-13T10:20:14.589Z,15.60
2017-05-13T10:22:43.815Z,15.36
2017-05-13T10:25:11.167Z,15.82
2017-05-13T10:27:38.429Z,14.60
2017-05-13T10:30:05.703Z,14.92
2017-05-13T10:32:32.998Z,15.42
2017-05-13T10:35:00.250Z,15.96
2017-05-13T10:37:28.393Z,15.88
2017-05-13T10:39:55.657Z,14.98
2017-05-13T10:42:23.029Z,14.28
2017-05-13T10:44:50.308Z,14.66
2017-05-13T10:47:19.625Z,15.02
2017-05-13T10:49:46.982Z,14.36
2017-05-13T10:52:14.202Z,15.06
2017-05-13T10:54:41.466Z,15.04
2017-05-13T10:57:08.934Z,15.08
2017-05-13T10:59:36.186Z,12.92
2017-05-13T11:02:03.397Z,13.78
2017-05-13T11:04:30.747Z,14.68
2017-05-13T11:06:58.011Z,12.86
2017-05-13T11:09:25.211Z,11.70
2017-05-13T11:11:52.471Z,12.58
2017-05-13T11:14:19.695Z,13.32
2017-05-13T11:16:46.965Z,11.92
2017-05-13T11:19:14.218Z,12.80
2017-05-13T11:21:41.427Z,13.28
2017-05-13T11:24:09.986Z,10.96
2017-05-13T11:26:39.246Z,11.66
2017-05-13T11:29:06.464Z,11.86
2017-05-13T11:31:38.238Z,11.62
2017-05-13T11:34:05.456Z,11.68
2017-05-13T11:36:32.663Z,11.88
2017-05-13T11:38:59.879Z,12.72
2017-05-13T11:41:27.106Z,13.08
2017-05-13T11:43:54.387Z,14.24
2017-05-13T11:46:21.636Z,13.86
2017-05-13T11:48:48.860Z,13.14
2017-05-13T11:51:16.151Z,13.96
2017-05-13T11:53:43.369Z,15.20
2017-05-13T11:56:10.636Z,13.90
2017-05-13T11:58:37.841Z,13.88
2017-05-13T12:01:05.037Z,14.80
2017-05-13T12:03:32.291Z,15.92
2017-05-13T12:05:59.562Z,16.32
2017-05-13T12:08:26.835Z,18.30
2017-05-13T12:10:54.076Z,18.84
2017-05-13T12:13:22.246Z,18.26
2017-05-13T12:15:49.491Z,16.90
2017-05-13T12:18:16.687Z,17.22
2017-05-13T12:20:43.930Z,5.74
2017-05-13T12:23:11.186Z,5.18
2017-05-13T12:25:38.370Z,3.84
2017-05-13T12:28:05.561Z,5.04
2017-05-13T12:30:32.815Z,5.34
2017-05-13T12:33:05.763Z,6.26
2017-05-13T12:35:33.049Z,7.42
2017-05-13T12:38:02.404Z,8.38
2017-05-13T12:40:31.079Z,8.08
2017-05-13T12:43:02.287Z,7.90
2017-05-13T12:45:35.553Z,4.14
2017-05-13T12:48:03.923Z,3.28
2017-05-13T12:50:33.146Z,4.06
2017-05-13T12:53:04.580Z,4.32
2017-05-13T12:55:31.766Z,4.76
2017-05-13T12:58:02.724Z,5.82
2017-05-13T13:00:31.291Z,6.24
2017-05-13T13:02:59.416Z,7.16
2017-05-13T13:05:26.648Z,6.50
2017-05-13T13:07:53.838Z,6.42
2017-05-13T13:10:42.411Z,11.16
2017-05-13T13:13:10.518Z,7.58
2017-05-13T13:15:37.746Z,8.50
2017-05-13T13:18:06.861Z,7.32
2017-05-13T13:20:34.042Z,8.58
2017-05-13T13:23:01.910Z,8.98
2017-05-13T13:25:29.110Z,7.78
2017-05-13T13:27:56.375Z,9.30
2017-05-13T13:30:23.606Z,9.08
2017-05-13T13:32:50.807Z,8.68
2017-05-13T13:35:29.640Z,10.34
2017-05-13T13:37:56.881Z,9.80
2017-05-13T13:40:24.100Z,9.44
2017-05-13T13:42:51.358Z,9.26
2017-05-13T13:45:18.683Z,9.96
2017-05-13T13:47:45.865Z,9.30
2017-05-13T13:50:13.090Z,8.34
2017-05-13T13:52:40.949Z,8.20
2017-05-13T13:55:08.181Z,8.34
2017-05-13T13:57:35.386Z,10.80
2017-05-13T14:00:02.612Z,7.78
2017-05-13T14:02:29.797Z,7.58
2017-05-13T14:04:56.993Z,7.04
2017-05-13T14:07:27.883Z,7.16
2017-05-13T14:09:55.723Z,9.10
2017-05-13T14:12:22.900Z,8.42
2017-05-13T14:14:50.126Z,8.30
2017-05-13T14:17:17.314Z,8.22
2017-05-13T14:19:45.516Z,8.74
2017-05-13T14:22:13.663Z,7.88
2017-05-13T14:24:40.888Z,8.10
2017-05-13T14:27:13.923Z,7.58
2017-05-13T14:29:41.119Z,6.60
2017-05-13T14:32:08.335Z,6.74
2017-05-13T14:34:37.962Z,6.88
2017-05-13T14:37:05.148Z,6.70
2017-05-13T14:39:32.379Z,6.88
2017-05-13T14:41:59.552Z,6.20
2017-05-13T14:44:27.682Z,6.66
2017-05-13T14:46:55.183Z,5.48
2017-05-13T14:49:22.468Z,5.50
2017-05-13T14:51:55.651Z,5.40
2017-05-13T14:54:23.517Z,5.52
2017-05-13T14:56:50.723Z,5.36
2017-05-13T14:59:17.962Z,5.88
2017-05-13T15:01:45.158Z,5.20
2017-05-13T15:04:14.413Z,5.98
2017-05-13T15:06:41.687Z,6.00
2017-05-13T15:09:08.872Z,5.98
2017-05-13T15:11:36.091Z,6.24
2017-05-13T15:14:04.429Z,6.60
2017-05-13T15:16:33.991Z,6.20
2017-05-13T15:19:01.234Z,5.80
2017-05-13T15:21:28.459Z,5.38
2017-05-13T15:24:02.579Z,5.46
2017-05-13T15:26:30.546Z,5.64
2017-05-13T15:29:00.681Z,6.18
2017-05-13T15:31:28.552Z,5.68
2017-05-13T15:33:57.278Z,5.40
2017-05-13T15:36:24.537Z,6.12
2017-05-13T15:38:52.659Z,6.48
2017-05-13T15:41:20.668Z,6.38
2017-05-13T15:43:47.883Z,6.20
2017-05-13T15:46:15.113Z,6.00
2017-05-13T15:48:48.951Z,6.62
2017-05-13T15:51:17.323Z,5.84
2017-05-13T15:53:44.485Z,6.92
2017-05-13T15:56:11.662Z,6.62
2017-05-13T15:58:38.866Z,6.00
2017-05-13T16:01:06.098Z,5.70
2017-05-13T16:03:35.526Z,6.16
2017-05-13T16:06:02.700Z,7.24
2017-05-13T16:08:29.955Z,6.06
2017-05-13T16:10:57.135Z,6.50
2017-05-13T16:13:24.322Z,7.36
2017-05-13T16:15:51.567Z,6.50
2017-05-13T16:18:21.829Z,5.74
2017-05-13T16:20:49.023Z,6.22
2017-05-13T16:23:16.223Z,6.08
2017-05-13T16:25:47.158Z,7.38
2017-05-13T16:28:14.356Z,7.28
2017-05-13T16:30:41.558Z,7.10
2017-05-13T16:33:08.789Z,6.76
2017-05-13T16:35:35.960Z,6.84
2017-05-13T16:38:03.961Z,6.56
2017-05-13T16:40:31.154Z,5.94
2017-05-13T16:42:58.367Z,5.44
2017-05-13T16:45:25.607Z,6.14
2017-05-13T16:47:52.847Z,6.46
2017-05-13T16:50:20.054Z,6.02
2017-05-13T16:52:47.235Z,6.72
2017-05-13T16:55:14.439Z,6.58
2017-05-13T16:57:41.758Z,7.74
2017-05-13T17:00:10.138Z,7.76
2017-05-13T17:02:38.276Z,6.76
2017-05-13T17:05:06.434Z,7.08
2017-05-13T17:07:33.648Z,7.50
2017-05-13T17:10:00.840Z,6.26
2017-05-13T17:12:28.068Z,6.22
2017-05-13T17:14:55.302Z,7.36
2017-05-13T17:17:22.526Z,6.62
2017-05-13T17:19:52.878Z,4.70
2017-05-13T17:22:20.754Z,4.68
2017-05-13T17:24:47.959Z,5.24
2017-05-13T17:27:15.316Z,5.02
2017-05-13T17:29:47.870Z,3.74
2017-05-13T17:32:15.200Z,4.66
2017-05-13T17:34:43.604Z,3.42
2017-05-13T17:37:10.853Z,3.50
2017-05-13T17:39:38.121Z,3.50
2017-05-13T17:42:05.323Z,4.20
2017-05-13T17:44:32.763Z,3.90
2017-05-13T17:46:59.970Z,3.86
2017-05-13T17:49:27.171Z,3.58
2017-05-13T17:54:54.000Z,4.26
2017-05-13T17:57:21.311Z,3.76
2017-05-13T17:59:48.511Z,4.66
2017-05-13T18:02:15.675Z,5.14
2017-05-13T18:04:44.886Z,5.70
2017-05-13T18:07:12.103Z,5.68
2017-05-13T18:09:39.356Z,2.70
2017-05-13T18:12:11.512Z,2.62
2017-05-13T18:14:38.740Z,1.80
2017-05-13T18:17:12.243Z,2.30
2017-05-13T18:29:17.702Z,1.80
2017-05-13T18:31:50.283Z,1.56
2017-05-13T18:34:17.534Z,1.78
2017-05-13T18:36:51.068Z,1.24
2017-05-13T18:39:19.179Z,1.10
2017-05-13T18:41:46.416Z,1.14
2017-05-13T18:53:28.524Z,1.80
2017-05-13T18:55:57.794Z,1.96
2017-05-13T18:58:26.882Z,1.90
2017-05-13T19:00:54.149Z,1.80
2017-05-13T19:03:21.991Z,2.10
2017-05-13T19:05:51.698Z,2.04
2017-05-13T19:08:28.890Z,2.34
2017-05-13T19:10:57.095Z,2.24
2017-05-13T19:16:04.248Z,2.50
2017-05-13T19:18:36.954Z,2.54
2017-05-13T19:21:07.370Z,2.84
2017-05-13T19:23:34.642Z,3.60
2017-05-13T19:26:01.861Z,3.10
2017-05-13T19:28:29.206Z,3.00
2017-05-13T19:30:56.516Z,3.08
2017-05-13T19:33:25.972Z,3.02
2017-05-13T19:35:53.302Z,3.48
2017-05-13T19:38:20.561Z,3.20
2017-05-13T19:40:47.858Z,3.18
2017-05-13T19:43:15.177Z,3.08
2017-05-13T19:45:42.432Z,4.16
2017-05-13T19:48:09.696Z,3.28
2017-05-13T19:50:37.023Z,4.10
2017-05-13T19:53:04.230Z,4.00
2017-05-13T19:55:31.563Z,4.66
2017-05-13T19:57:58.821Z,4.48
2017-05-13T20:00:33.299Z,5.32
2017-05-13T20:03:02.707Z,4.60
2017-05-13T20:05:31.918Z,4.66
2017-05-13T20:07:59.145Z,5.20
2017-05-13T20:10:26.341Z,5.32
2017-05-13T20:12:57.739Z,6.12
2017-05-13T20:15:24.926Z,5.58
2017-05-13T20:17:52.150Z,6.16
2017-05-13T20:20:22.412Z,6.08
2017-05-13T20:22:51.422Z,5.42
2017-05-13T20:25:18.606Z,6.36
2017-05-13T20:27:45.836Z,6.64
2017-05-13T20:30:13.027Z,9.16
2017-05-13T20:32:40.315Z,7.06
2017-05-13T20:35:08.568Z,7.74
2017-05-13T20:37:36.717Z,7.82
2017-05-13T20:40:03.921Z,8.00
2017-05-13T20:45:23.356Z,7.68
2017-05-13T20:47:50.532Z,7.84
2017-05-13T20:50:17.794Z,8.70
2017-05-13T20:52:44.962Z,7.98
2017-05-13T20:55:13.062Z,7.66
2017-05-13T20:57:41.233Z,8.08
2017-05-13T21:00:08.449Z,9.48
2017-05-13T21:02:35.894Z,9.02
2017-05-13T21:05:04.647Z,8.10
2017-05-13T21:07:32.019Z,8.74
2017-05-13T21:09:59.587Z,8.48
2017-05-13T21:12:27.451Z,8.10
2017-05-13T21:14:56.984Z,7.06
2017-05-13T21:17:24.206Z,6.90
2017-05-13T21:19:56.937Z,5.32
2017-05-13T21:22:26.080Z,4.50
2017-05-13T21:24:53.306Z,4.10
2017-05-13T21:27:20.527Z,3.68
2017-05-13T21:29:48.358Z,2.86
2017-05-13T21:32:15.610Z,3.30
2017-05-13T21:34:44.704Z,3.24
2017-05-13T21:37:32.943Z,3.96
2017-05-13T21:40:12.010Z,4.08
2017-05-13T21:42:40.125Z,3.90
2017-05-13T21:45:07.333Z,4.50
2017-05-13T21:47:35.051Z,4.02
2017-05-13T21:50:02.274Z,3.92
2017-05-13T21:52:29.463Z,3.62
2017-05-13T21:54:57.630Z,4.22
2017-05-13T21:57:24.859Z,3.48
2017-05-13T21:59:56.167Z,3.32
2017-05-13T22:02:23.399Z,3.72
2017-05-13T22:04:51.176Z,3.72
2017-05-13T22:07:18.382Z,3.46
2017-05-13T22:09:45.962Z,3.42
2017-05-13T22:12:13.192Z,3.70
2017-05-13T22:14:40.397Z,3.28
2017-05-13T22:17:07.604Z,3.68
2017-05-13T22:19:35.744Z,3.50
2017-05-13T22:22:03.170Z,3.82
2017-05-13T22:24:30.807Z,3.98
2017-05-13T22:27:02.058Z,4.20
2017-05-13T22:29:29.233Z,4.42
2017-05-13T22:31:56.822Z,4.40
2017-05-13T22:34:24.486Z,4.50
2017-05-13T22:36:51.660Z,4.26
2017-05-13T22:39:18.861Z,4.56
2017-05-13T22:41:46.133Z,4.30
2017-05-13T22:44:15.846Z,5.20
2017-05-13T22:46:45.531Z,4.86
2017-05-13T22:49:12.714Z,4.66
2017-05-13T22:51:39.919Z,4.52
2017-05-13T22:54:07.099Z,5.10
2017-05-13T22:56:34.302Z,4.60
2017-05-13T22:59:02.268Z,4.96
2017-05-13T23:01:29.418Z,6.94
2017-05-13T23:03:57.477Z,5.40
2017-05-13T23:06:24.654Z,5.42
2017-05-13T23:08:52.363Z,5.48
2017-05-13T23:11:19.532Z,5.40
2017-05-13T23:13:46.711Z,5.52
2017-05-13T23:16:14.833Z,7.52
2017-05-13T23:18:43.187Z,8.08
2017-05-13T23:21:10.398Z,7.26
2017-05-13T23:23:38.195Z,8.00
2017-05-13T23:26:07.335Z,8.16
2017-05-13T23:28:34.530Z,8.82
2017-05-13T23:31:01.706Z,8.12
2017-05-13T23:33:29.385Z,7.64
2017-05-13T23:35:56.626Z,6.58
2017-05-13T23:38:23.799Z,7.22
2017-05-13T23:40:50.995Z,7.50
2017-05-13T23:43:18.175Z,7.14
2017-05-13T23:45:46.331Z,7.20
2017-05-13T23:48:13.518Z,6.10
2017-05-13T23:50:40.684Z,6.16
2017-05-13T23:53:07.865Z,5.98
2017-05-13T23:55:35.047Z,5.24
2017-05-13T23:58:02.348Z,4.60
